sensor_id;sensor_type;location;lat;lon;timestamp;pressure;altitude;pressure_sealevel;temperature;humidity
5812;BME280;2932;52.400;9.558;2024-03-25T00:01:27;99632.06;;;9.30;73.72
5812;BME280;2932;52.400;9.558;2024-03-25T00:03:52;99638.25;;;9.43;74.10
5812;BME280;2932;52.400;9.558;2024-03-25T00:06:18;99630.28;;;9.57;73.91
5812;BME280;2932;52.400;9.558;2024-03-25T00:08:43;99641.53;;;9.49;73.87
5812;BME280;2932;52.400;9.558;2024-03-25T00:11:08;99649.50;;;9.34;74.20
5812;BME280;2932;52.400;9.558;2024-03-25T00:13:33;99643.69;;;9.40;74.18
5812;BME280;2932;52.400;9.558;2024-03-25T00:15:59;99649.00;;;9.48;74.01
5812;BME280;2932;52.400;9.558;2024-03-25T00:18:24;99649.84;;;9.33;74.07
5812;BME280;2932;52.400;9.558;2024-03-25T00:20:49;99654.38;;;9.41;74.66
5812;BME280;2932;52.400;9.558;2024-03-25T00:23:16;99659.00;;;9.37;74.23
5812;BME280;2932;52.400;9.558;2024-03-25T00:25:41;99663.41;;;9.57;73.89
5812;BME280;2932;52.400;9.558;2024-03-25T00:28:07;99665.41;;;9.41;74.00
5812;BME280;2932;52.400;9.558;2024-03-25T00:30:32;99669.19;;;9.33;74.15
5812;BME280;2932;52.400;9.558;2024-03-25T00:32:57;99679.41;;;9.32;74.23
5812;BME280;2932;52.400;9.558;2024-03-25T00:35:22;99671.41;;;8.92;75.02
5812;BME280;2932;52.400;9.558;2024-03-25T00:37:48;99677.28;;;9.07;75.51
5812;BME280;2932;52.400;9.558;2024-03-25T00:40:14;99675.03;;;9.12;75.57
5812;BME280;2932;52.400;9.558;2024-03-25T00:42:39;99685.09;;;9.05;76.06
5812;BME280;2932;52.400;9.558;2024-03-25T00:45:05;99680.13;;;9.29;75.56
5812;BME280;2932;52.400;9.558;2024-03-25T00:47:31;99682.94;;;9.14;75.86
5812;BME280;2932;52.400;9.558;2024-03-25T00:49:57;99688.75;;;9.44;75.45
5812;BME280;2932;52.400;9.558;2024-03-25T00:52:22;99688.78;;;9.28;75.59
5812;BME280;2932;52.400;9.558;2024-03-25T00:54:47;99697.84;;;9.28;75.83
5812;BME280;2932;52.400;9.558;2024-03-25T00:57:12;99695.97;;;9.32;75.37
5812;BME280;2932;52.400;9.558;2024-03-25T00:59:38;99698.19;;;9.08;75.93
5812;BME280;2932;52.400;9.558;2024-03-25T01:02:04;99699.53;;;9.33;75.59
5812;BME280;2932;52.400;9.558;2024-03-25T01:04:29;99695.91;;;9.29;75.76
5812;BME280;2932;52.400;9.558;2024-03-25T01:06:54;99697.78;;;9.25;75.79
5812;BME280;2932;52.400;9.558;2024-03-25T01:09:20;99700.25;;;9.30;75.67
5812;BME280;2932;52.400;9.558;2024-03-25T01:11:47;99706.03;;;8.90;76.07
5812;BME280;2932;52.400;9.558;2024-03-25T01:14:12;99700.94;;;8.92;76.58
5812;BME280;2932;52.400;9.558;2024-03-25T01:16:37;99715.09;;;9.06;76.46
5812;BME280;2932;52.400;9.558;2024-03-25T01:19:03;99702.19;;;9.10;76.05
5812;BME280;2932;52.400;9.558;2024-03-25T01:21:28;99708.81;;;8.74;76.42
5812;BME280;2932;52.400;9.558;2024-03-25T01:23:55;99708.06;;;8.93;76.18
5812;BME280;2932;52.400;9.558;2024-03-25T01:26:20;99704.59;;;9.12;75.80
5812;BME280;2932;52.400;9.558;2024-03-25T01:28:46;99710.75;;;8.89;75.85
5812;BME280;2932;52.400;9.558;2024-03-25T01:31:11;99706.38;;;8.88;75.84
5812;BME280;2932;52.400;9.558;2024-03-25T01:33:36;99708.94;;;9.13;75.51
5812;BME280;2932;52.400;9.558;2024-03-25T01:36:02;99716.63;;;9.39;75.10
5812;BME280;2932;52.400;9.558;2024-03-25T01:38:27;99704.66;;;9.15;75.51
5812;BME280;2932;52.400;9.558;2024-03-25T01:40:53;99709.31;;;9.11;75.56
5812;BME280;2932;52.400;9.558;2024-03-25T01:43:18;99702.28;;;9.14;75.25
5812;BME280;2932;52.400;9.558;2024-03-25T01:45:44;99708.88;;;8.93;75.53
5812;BME280;2932;52.400;9.558;2024-03-25T01:48:11;99712.25;;;9.38;75.31
5812;BME280;2932;52.400;9.558;2024-03-25T01:50:43;99718.91;;;9.52;74.68
5812;BME280;2932;52.400;9.558;2024-03-25T01:53:11;99716.03;;;9.84;74.01
5812;BME280;2932;52.400;9.558;2024-03-25T01:55:38;99719.91;;;9.63;74.00
5812;BME280;2932;52.400;9.558;2024-03-25T01:58:04;99721.63;;;9.33;74.22
5812;BME280;2932;52.400;9.558;2024-03-25T02:00:30;99710.75;;;9.40;74.19
5812;BME280;2932;52.400;9.558;2024-03-25T02:02:57;99715.22;;;9.29;74.20
5812;BME280;2932;52.400;9.558;2024-03-25T02:05:22;99731.81;;;8.97;74.84
5812;BME280;2932;52.400;9.558;2024-03-25T02:07:48;99731.41;;;9.46;74.15
5812;BME280;2932;52.400;9.558;2024-03-25T02:10:14;99736.59;;;9.32;74.24
5812;BME280;2932;52.400;9.558;2024-03-25T02:12:41;99733.38;;;9.30;73.97
5812;BME280;2932;52.400;9.558;2024-03-25T02:15:09;99731.28;;;9.58;73.90
5812;BME280;2932;52.400;9.558;2024-03-25T02:17:35;99739.31;;;9.48;73.70
5812;BME280;2932;52.400;9.558;2024-03-25T02:20:01;99737.03;;;9.34;73.69
5812;BME280;2932;52.400;9.558;2024-03-25T02:22:28;99746.03;;;9.31;73.64
5812;BME280;2932;52.400;9.558;2024-03-25T02:24:56;99744.13;;;9.51;73.83
5812;BME280;2932;52.400;9.558;2024-03-25T02:27:22;99743.72;;;9.33;73.46
5812;BME280;2932;52.400;9.558;2024-03-25T02:29:48;99745.41;;;9.92;72.48
5812;BME280;2932;52.400;9.558;2024-03-25T02:32:13;99751.25;;;9.71;71.83
5812;BME280;2932;52.400;9.558;2024-03-25T02:34:43;99751.91;;;9.64;72.00
5812;BME280;2932;52.400;9.558;2024-03-25T02:37:10;99753.38;;;9.58;72.19
5812;BME280;2932;52.400;9.558;2024-03-25T02:39:36;99754.47;;;9.38;72.82
5812;BME280;2932;52.400;9.558;2024-03-25T02:42:02;99758.72;;;9.16;73.02
5812;BME280;2932;52.400;9.558;2024-03-25T02:44:27;99768.31;;;9.07;73.80
5812;BME280;2932;52.400;9.558;2024-03-25T02:46:53;99766.53;;;9.14;73.88
5812;BME280;2932;52.400;9.558;2024-03-25T02:49:19;99768.50;;;9.14;74.55
5812;BME280;2932;52.400;9.558;2024-03-25T02:51:44;99777.34;;;9.39;73.56
5812;BME280;2932;52.400;9.558;2024-03-25T02:54:09;99771.31;;;9.33;73.33
5812;BME280;2932;52.400;9.558;2024-03-25T02:56:35;99772.25;;;9.06;73.86
5812;BME280;2932;52.400;9.558;2024-03-25T02:59:01;99777.63;;;9.33;73.54
5812;BME280;2932;52.400;9.558;2024-03-25T03:01:26;99784.03;;;9.38;73.43
5812;BME280;2932;52.400;9.558;2024-03-25T03:03:51;99781.88;;;9.47;73.38
5812;BME280;2932;52.400;9.558;2024-03-25T03:06:17;99786.81;;;9.73;72.75
5812;BME280;2932;52.400;9.558;2024-03-25T03:08:43;99787.25;;;9.75;72.37
5812;BME280;2932;52.400;9.558;2024-03-25T03:11:09;99789.91;;;9.52;73.08
5812;BME280;2932;52.400;9.558;2024-03-25T03:13:34;99794.72;;;9.39;73.08
5812;BME280;2932;52.400;9.558;2024-03-25T03:15:59;99789.63;;;9.57;73.38
5812;BME280;2932;52.400;9.558;2024-03-25T03:18:25;99793.91;;;9.54;72.97
5812;BME280;2932;52.400;9.558;2024-03-25T03:20:50;99802.84;;;9.67;72.49
5812;BME280;2932;52.400;9.558;2024-03-25T03:23:15;99793.69;;;9.63;72.83
5812;BME280;2932;52.400;9.558;2024-03-25T03:25:41;99793.66;;;9.44;72.87
5812;BME280;2932;52.400;9.558;2024-03-25T03:28:06;99805.41;;;9.41;73.17
5812;BME280;2932;52.400;9.558;2024-03-25T03:30:31;99800.78;;;9.45;73.26
5812;BME280;2932;52.400;9.558;2024-03-25T03:32:57;99802.03;;;9.47;73.39
5812;BME280;2932;52.400;9.558;2024-03-25T03:35:22;99805.69;;;9.20;73.71
5812;BME280;2932;52.400;9.558;2024-03-25T03:37:47;99814.94;;;9.27;73.95
5812;BME280;2932;52.400;9.558;2024-03-25T03:40:13;99812.38;;;9.19;73.95
5812;BME280;2932;52.400;9.558;2024-03-25T03:42:39;99815.03;;;9.47;74.15
5812;BME280;2932;52.400;9.558;2024-03-25T03:45:05;99819.41;;;9.32;73.88
5812;BME280;2932;52.400;9.558;2024-03-25T03:47:30;99818.50;;;9.44;73.88
5812;BME280;2932;52.400;9.558;2024-03-25T03:49:56;99825.00;;;9.35;74.31
5812;BME280;2932;52.400;9.558;2024-03-25T03:52:22;99825.19;;;9.43;74.12
5812;BME280;2932;52.400;9.558;2024-03-25T03:54:47;99823.31;;;9.31;74.33
5812;BME280;2932;52.400;9.558;2024-03-25T03:57:13;99828.66;;;9.40;73.97
5812;BME280;2932;52.400;9.558;2024-03-25T03:59:38;99822.81;;;9.60;73.33
5812;BME280;2932;52.400;9.558;2024-03-25T04:02:03;99824.56;;;9.02;73.98
5812;BME280;2932;52.400;9.558;2024-03-25T04:04:29;99832.22;;;9.40;73.94
5812;BME280;2932;52.400;9.558;2024-03-25T04:06:54;99830.97;;;9.22;73.44
5812;BME280;2932;52.400;9.558;2024-03-25T04:09:20;99833.00;;;9.25;73.99
5812;BME280;2932;52.400;9.558;2024-03-25T04:11:45;99833.56;;;9.46;73.51
5812;BME280;2932;52.400;9.558;2024-03-25T04:14:11;99839.44;;;9.45;73.21
5812;BME280;2932;52.400;9.558;2024-03-25T04:16:36;99842.09;;;9.57;73.56
5812;BME280;2932;52.400;9.558;2024-03-25T04:19:01;99842.22;;;9.80;73.20
5812;BME280;2932;52.400;9.558;2024-03-25T04:21:27;99840.78;;;9.86;72.77
5812;BME280;2932;52.400;9.558;2024-03-25T04:23:52;99845.34;;;9.62;72.63
5812;BME280;2932;52.400;9.558;2024-03-25T04:26:18;99841.06;;;9.81;73.19
5812;BME280;2932;52.400;9.558;2024-03-25T04:28:43;99846.47;;;9.58;72.97
5812;BME280;2932;52.400;9.558;2024-03-25T04:31:08;99845.22;;;9.55;72.93
5812;BME280;2932;52.400;9.558;2024-03-25T04:33:34;99838.69;;;9.63;73.58
5812;BME280;2932;52.400;9.558;2024-03-25T04:36:00;99845.03;;;9.32;73.88
5812;BME280;2932;52.400;9.558;2024-03-25T04:38:25;99844.50;;;9.27;74.34
5812;BME280;2932;52.400;9.558;2024-03-25T04:40:50;99850.56;;;9.48;74.17
5812;BME280;2932;52.400;9.558;2024-03-25T04:43:16;99851.72;;;9.47;74.23
5812;BME280;2932;52.400;9.558;2024-03-25T04:45:42;99861.41;;;9.25;74.34
5812;BME280;2932;52.400;9.558;2024-03-25T04:48:07;99859.97;;;9.63;74.36
5812;BME280;2932;52.400;9.558;2024-03-25T04:50:35;99866.63;;;9.78;73.46
5812;BME280;2932;52.400;9.558;2024-03-25T04:53:00;99867.72;;;9.73;73.40
5812;BME280;2932;52.400;9.558;2024-03-25T04:55:26;99866.66;;;9.62;73.77
5812;BME280;2932;52.400;9.558;2024-03-25T04:57:51;99875.47;;;9.67;73.69
5812;BME280;2932;52.400;9.558;2024-03-25T05:00:16;99873.72;;;9.59;73.57
5812;BME280;2932;52.400;9.558;2024-03-25T05:02:42;99882.13;;;9.82;73.33
5812;BME280;2932;52.400;9.558;2024-03-25T05:05:07;99878.69;;;9.69;73.37
5812;BME280;2932;52.400;9.558;2024-03-25T05:07:33;99884.81;;;9.79;73.24
5812;BME280;2932;52.400;9.558;2024-03-25T05:09:58;99891.22;;;9.98;72.94
5812;BME280;2932;52.400;9.558;2024-03-25T05:12:24;99875.66;;;10.10;72.72
5812;BME280;2932;52.400;9.558;2024-03-25T05:14:52;99871.91;;;10.02;72.22
5812;BME280;2932;52.400;9.558;2024-03-25T05:17:17;99875.09;;;9.85;72.34
5812;BME280;2932;52.400;9.558;2024-03-25T05:19:43;99880.00;;;9.76;72.75
5812;BME280;2932;52.400;9.558;2024-03-25T05:22:10;99880.28;;;9.70;73.07
5812;BME280;2932;52.400;9.558;2024-03-25T05:24:36;99888.22;;;9.41;73.34
5812;BME280;2932;52.400;9.558;2024-03-25T05:27:01;99902.19;;;9.63;73.43
5812;BME280;2932;52.400;9.558;2024-03-25T05:29:26;99901.16;;;9.52;73.48
5812;BME280;2932;52.400;9.558;2024-03-25T05:32:01;99905.31;;;9.62;73.20
5812;BME280;2932;52.400;9.558;2024-03-25T05:34:28;99904.78;;;9.41;73.92
5812;BME280;2932;52.400;9.558;2024-03-25T05:36:54;99910.13;;;9.33;73.81
5812;BME280;2932;52.400;9.558;2024-03-25T05:39:19;99902.09;;;9.60;74.01
5812;BME280;2932;52.400;9.558;2024-03-25T05:41:46;99913.44;;;9.55;73.34
5812;BME280;2932;52.400;9.558;2024-03-25T05:44:11;99917.44;;;9.89;73.28
5812;BME280;2932;52.400;9.558;2024-03-25T05:46:36;99914.66;;;9.89;72.96
5812;BME280;2932;52.400;9.558;2024-03-25T05:49:05;99918.53;;;9.53;73.00
5812;BME280;2932;52.400;9.558;2024-03-25T05:51:31;99912.38;;;9.59;72.98
5812;BME280;2932;52.400;9.558;2024-03-25T05:53:58;99917.00;;;9.55;72.85
5812;BME280;2932;52.400;9.558;2024-03-25T05:56:24;99924.03;;;9.68;72.69
5812;BME280;2932;52.400;9.558;2024-03-25T05:58:56;99918.53;;;9.53;72.57
5812;BME280;2932;52.400;9.558;2024-03-25T06:01:21;99926.44;;;9.54;73.28
5812;BME280;2932;52.400;9.558;2024-03-25T06:03:47;99931.59;;;9.40;72.99
5812;BME280;2932;52.400;9.558;2024-03-25T06:06:12;99924.19;;;9.28;73.09
5812;BME280;2932;52.400;9.558;2024-03-25T06:08:37;99932.13;;;9.30;73.20
5812;BME280;2932;52.400;9.558;2024-03-25T06:11:03;99936.28;;;9.24;73.68
5812;BME280;2932;52.400;9.558;2024-03-25T06:13:28;99938.19;;;9.35;73.36
5812;BME280;2932;52.400;9.558;2024-03-25T06:15:54;99939.44;;;9.38;73.48
5812;BME280;2932;52.400;9.558;2024-03-25T06:18:19;99935.16;;;9.41;73.55
5812;BME280;2932;52.400;9.558;2024-03-25T06:20:45;99929.25;;;9.26;73.81
5812;BME280;2932;52.400;9.558;2024-03-25T06:23:10;99937.06;;;9.52;73.80
5812;BME280;2932;52.400;9.558;2024-03-25T06:25:35;99934.28;;;9.84;73.47
5812;BME280;2932;52.400;9.558;2024-03-25T06:28:02;99943.81;;;9.70;73.22
5812;BME280;2932;52.400;9.558;2024-03-25T06:30:28;99949.41;;;9.90;73.16
5812;BME280;2932;52.400;9.558;2024-03-25T06:33:12;99948.34;;;9.94;72.77
5812;BME280;2932;52.400;9.558;2024-03-25T06:35:56;99952.97;;;9.43;72.94
5812;BME280;2932;52.400;9.558;2024-03-25T06:38:21;99951.13;;;9.79;72.66
5812;BME280;2932;52.400;9.558;2024-03-25T06:40:46;99965.53;;;10.03;72.34
5812;BME280;2932;52.400;9.558;2024-03-25T06:43:12;99970.38;;;9.59;72.21
5812;BME280;2932;52.400;9.558;2024-03-25T06:45:37;99973.22;;;9.47;72.80
5812;BME280;2932;52.400;9.558;2024-03-25T06:48:03;99978.78;;;9.35;73.52
5812;BME280;2932;52.400;9.558;2024-03-25T06:50:29;99969.16;;;9.29;73.87
5812;BME280;2932;52.400;9.558;2024-03-25T06:52:54;99974.16;;;9.39;74.24
5812;BME280;2932;52.400;9.558;2024-03-25T06:55:19;99977.75;;;9.71;74.02
5812;BME280;2932;52.400;9.558;2024-03-25T06:57:48;99980.28;;;9.32;74.64
5812;BME280;2932;52.400;9.558;2024-03-25T07:00:13;99980.69;;;9.78;74.66
5812;BME280;2932;52.400;9.558;2024-03-25T07:02:39;99988.72;;;9.67;74.61
5812;BME280;2932;52.400;9.558;2024-03-25T07:05:05;99983.81;;;9.45;74.83
5812;BME280;2932;52.400;9.558;2024-03-25T07:07:31;99984.97;;;9.76;74.57
5812;BME280;2932;52.400;9.558;2024-03-25T07:09:56;99982.00;;;10.00;73.67
5812;BME280;2932;52.400;9.558;2024-03-25T07:12:22;99987.97;;;10.18;73.13
5812;BME280;2932;52.400;9.558;2024-03-25T07:14:47;99987.84;;;9.95;72.62
5812;BME280;2932;52.400;9.558;2024-03-25T07:17:13;99988.63;;;9.80;72.36
5812;BME280;2932;52.400;9.558;2024-03-25T07:19:38;99991.66;;;9.90;72.82
5812;BME280;2932;52.400;9.558;2024-03-25T07:22:03;99985.16;;;10.30;72.41
5812;BME280;2932;52.400;9.558;2024-03-25T07:24:28;99989.16;;;10.32;71.99
5812;BME280;2932;52.400;9.558;2024-03-25T07:26:54;99986.59;;;10.24;71.50
5812;BME280;2932;52.400;9.558;2024-03-25T07:29:19;99992.28;;;9.84;71.45
5812;BME280;2932;52.400;9.558;2024-03-25T07:31:44;99989.72;;;9.91;71.10
5812;BME280;2932;52.400;9.558;2024-03-25T07:34:10;99997.09;;;10.34;70.74
5812;BME280;2932;52.400;9.558;2024-03-25T07:36:37;99993.06;;;10.00;69.91
5812;BME280;2932;52.400;9.558;2024-03-25T07:39:02;100001.22;;;10.24;69.70
5812;BME280;2932;52.400;9.558;2024-03-25T07:41:30;99998.81;;;9.91;70.27
5812;BME280;2932;52.400;9.558;2024-03-25T07:43:55;100000.94;;;9.98;70.37
5812;BME280;2932;52.400;9.558;2024-03-25T07:46:21;100012.84;;;10.02;70.11
5812;BME280;2932;52.400;9.558;2024-03-25T07:48:46;100008.88;;;9.99;70.15
5812;BME280;2932;52.400;9.558;2024-03-25T07:51:11;100011.06;;;10.10;69.63
5812;BME280;2932;52.400;9.558;2024-03-25T07:53:37;100019.72;;;10.08;69.60
5812;BME280;2932;52.400;9.558;2024-03-25T07:56:02;100015.91;;;10.13;69.67
5812;BME280;2932;52.400;9.558;2024-03-25T07:58:29;100019.31;;;10.22;69.41
5812;BME280;2932;52.400;9.558;2024-03-25T08:00:55;100020.72;;;10.00;69.31
5812;BME280;2932;52.400;9.558;2024-03-25T08:03:20;100024.41;;;10.20;69.02
5812;BME280;2932;52.400;9.558;2024-03-25T08:05:45;100022.69;;;10.31;68.63
5812;BME280;2932;52.400;9.558;2024-03-25T08:08:11;100027.16;;;10.71;67.88
5812;BME280;2932;52.400;9.558;2024-03-25T08:10:37;100027.97;;;10.71;68.08
5812;BME280;2932;52.400;9.558;2024-03-25T08:13:03;100030.97;;;11.01;68.01
5812;BME280;2932;52.400;9.558;2024-03-25T08:15:28;100037.44;;;11.28;67.06
5812;BME280;2932;52.400;9.558;2024-03-25T08:17:54;100022.53;;;11.13;66.59
5812;BME280;2932;52.400;9.558;2024-03-25T08:20:19;100027.25;;;10.93;66.76
5812;BME280;2932;52.400;9.558;2024-03-25T08:22:44;100035.63;;;10.97;66.16
5812;BME280;2932;52.400;9.558;2024-03-25T08:25:11;100031.75;;;10.82;65.87
5812;BME280;2932;52.400;9.558;2024-03-25T08:27:36;100030.66;;;11.25;65.11
5812;BME280;2932;52.400;9.558;2024-03-25T08:30:02;100032.72;;;11.09;65.06
5812;BME280;2932;52.400;9.558;2024-03-25T08:32:28;100029.88;;;11.06;65.03
5812;BME280;2932;52.400;9.558;2024-03-25T08:34:54;100039.13;;;10.94;64.91
5812;BME280;2932;52.400;9.558;2024-03-25T08:37:19;100032.41;;;11.53;64.38
5812;BME280;2932;52.400;9.558;2024-03-25T08:39:44;100034.03;;;11.34;64.15
5812;BME280;2932;52.400;9.558;2024-03-25T08:42:10;100036.91;;;10.84;64.06
5812;BME280;2932;52.400;9.558;2024-03-25T08:44:35;100047.53;;;11.17;63.95
5812;BME280;2932;52.400;9.558;2024-03-25T08:47:00;100042.19;;;11.08;64.73
5812;BME280;2932;52.400;9.558;2024-03-25T08:49:28;100047.06;;;10.60;64.69
5812;BME280;2932;52.400;9.558;2024-03-25T08:51:53;100042.19;;;11.08;64.23
5812;BME280;2932;52.400;9.558;2024-03-25T08:54:19;100046.19;;;10.91;64.49
5812;BME280;2932;52.400;9.558;2024-03-25T08:56:44;100043.03;;;10.74;64.74
5812;BME280;2932;52.400;9.558;2024-03-25T08:59:10;100042.97;;;10.89;63.94
5812;BME280;2932;52.400;9.558;2024-03-25T09:01:35;100045.75;;;10.89;63.45
5812;BME280;2932;52.400;9.558;2024-03-25T09:04:01;100042.47;;;11.42;63.09
5812;BME280;2932;52.400;9.558;2024-03-25T09:06:27;100054.56;;;10.95;63.06
5812;BME280;2932;52.400;9.558;2024-03-25T09:08:52;100047.94;;;11.57;63.10
5812;BME280;2932;52.400;9.558;2024-03-25T09:11:36;100030.59;;;12.06;61.60
5812;BME280;2932;52.400;9.558;2024-03-25T09:14:01;100039.78;;;12.33;60.57
5812;BME280;2932;52.400;9.558;2024-03-25T09:16:29;100045.28;;;11.64;60.96
5812;BME280;2932;52.400;9.558;2024-03-25T09:18:55;100046.38;;;11.18;61.19
5812;BME280;2932;52.400;9.558;2024-03-25T09:21:20;100060.75;;;11.27;60.79
5812;BME280;2932;52.400;9.558;2024-03-25T09:23:47;100055.56;;;11.64;60.43
5812;BME280;2932;52.400;9.558;2024-03-25T09:26:13;100049.41;;;11.93;60.00
5812;BME280;2932;52.400;9.558;2024-03-25T09:28:38;100049.34;;;11.70;60.26
5812;BME280;2932;52.400;9.558;2024-03-25T09:31:04;100061.47;;;11.62;60.96
5812;BME280;2932;52.400;9.558;2024-03-25T09:33:30;100052.28;;;11.78;60.12
5812;BME280;2932;52.400;9.558;2024-03-25T09:35:56;100056.53;;;11.52;59.94
5812;BME280;2932;52.400;9.558;2024-03-25T09:38:21;100055.88;;;11.59;59.63
5812;BME280;2932;52.400;9.558;2024-03-25T09:40:46;100057.84;;;11.39;59.51
5812;BME280;2932;52.400;9.558;2024-03-25T09:43:40;100062.00;;;11.49;59.36
5812;BME280;2932;52.400;9.558;2024-03-25T09:46:08;100059.34;;;11.75;59.05
5812;BME280;2932;52.400;9.558;2024-03-25T09:48:34;100059.72;;;11.74;58.99
5812;BME280;2932;52.400;9.558;2024-03-25T09:50:59;100062.91;;;11.76;59.00
5812;BME280;2932;52.400;9.558;2024-03-25T09:53:27;100052.19;;;12.16;59.00
5812;BME280;2932;52.400;9.558;2024-03-25T09:55:54;100062.84;;;11.72;57.54
5812;BME280;2932;52.400;9.558;2024-03-25T09:58:21;100058.34;;;11.83;58.11
5812;BME280;2932;52.400;9.558;2024-03-25T10:00:46;100065.50;;;11.46;58.37
5812;BME280;2932;52.400;9.558;2024-03-25T10:03:12;100061.78;;;11.77;58.08
5812;BME280;2932;52.400;9.558;2024-03-25T10:05:39;100059.97;;;11.46;57.28
5812;BME280;2932;52.400;9.558;2024-03-25T10:08:05;100057.66;;;11.90;57.51
5812;BME280;2932;52.400;9.558;2024-03-25T10:10:30;100063.84;;;12.52;57.36
5812;BME280;2932;52.400;9.558;2024-03-25T10:12:56;100068.34;;;12.60;56.67
5812;BME280;2932;52.400;9.558;2024-03-25T10:15:21;100064.88;;;12.66;56.29
5812;BME280;2932;52.400;9.558;2024-03-25T10:17:49;100054.16;;;12.95;56.18
5812;BME280;2932;52.400;9.558;2024-03-25T10:20:14;100051.56;;;13.39;55.76
5812;BME280;2932;52.400;9.558;2024-03-25T10:22:44;100051.75;;;13.90;55.14
5812;BME280;2932;52.400;9.558;2024-03-25T10:25:25;100054.28;;;13.69;53.61
5812;BME280;2932;52.400;9.558;2024-03-25T10:27:59;100051.28;;;13.85;53.30
5812;BME280;2932;52.400;9.558;2024-03-25T10:30:25;100059.41;;;13.30;53.47
5812;BME280;2932;52.400;9.558;2024-03-25T10:33:04;100051.53;;;13.06;54.21
5812;BME280;2932;52.400;9.558;2024-03-25T10:35:32;100060.63;;;12.50;54.84
5812;BME280;2932;52.400;9.558;2024-03-25T10:38:03;100057.81;;;12.46;55.46
5812;BME280;2932;52.400;9.558;2024-03-25T10:40:34;100056.44;;;12.10;55.74
5812;BME280;2932;52.400;9.558;2024-03-25T10:43:08;100052.19;;;12.43;55.34
5812;BME280;2932;52.400;9.558;2024-03-25T10:45:47;100049.66;;;13.13;54.80
5812;BME280;2932;52.400;9.558;2024-03-25T10:48:26;100055.22;;;13.13;54.20
5812;BME280;2932;52.400;9.558;2024-03-25T10:50:54;100045.19;;;13.72;53.98
5812;BME280;2932;52.400;9.558;2024-03-25T10:53:21;100040.63;;;13.90;52.73
5812;BME280;2932;52.400;9.558;2024-03-25T10:55:50;100031.97;;;14.47;51.89
5812;BME280;2932;52.400;9.558;2024-03-25T10:58:16;100025.28;;;15.42;51.76
5812;BME280;2932;52.400;9.558;2024-03-25T11:00:43;100029.00;;;15.85;49.81
5812;BME280;2932;52.400;9.558;2024-03-25T11:03:08;100034.50;;;15.53;50.10
5812;BME280;2932;52.400;9.558;2024-03-25T11:05:34;100030.63;;;16.25;49.11
5812;BME280;2932;52.400;9.558;2024-03-25T11:08:13;100034.34;;;15.10;48.81
5812;BME280;2932;52.400;9.558;2024-03-25T11:10:40;100037.91;;;13.60;50.47
5812;BME280;2932;52.400;9.558;2024-03-25T11:13:12;100037.91;;;14.01;51.53
5812;BME280;2932;52.400;9.558;2024-03-25T11:15:42;100035.88;;;14.39;51.03
5812;BME280;2932;52.400;9.558;2024-03-25T11:18:15;100034.78;;;15.19;53.33
5812;BME280;2932;52.400;9.558;2024-03-25T11:20:40;100027.03;;;16.67;58.11
5812;BME280;2932;52.400;9.558;2024-03-25T11:23:13;100020.25;;;17.62;57.99
5812;BME280;2932;52.400;9.558;2024-03-25T11:25:40;100014.97;;;17.82;53.82
5812;BME280;2932;52.400;9.558;2024-03-25T11:28:06;100017.19;;;18.05;50.81
5812;BME280;2932;52.400;9.558;2024-03-25T11:30:32;100014.09;;;17.96;48.11
5812;BME280;2932;52.400;9.558;2024-03-25T11:33:01;100003.91;;;18.16;46.01
5812;BME280;2932;52.400;9.558;2024-03-25T11:35:26;100012.06;;;17.27;45.80
5812;BME280;2932;52.400;9.558;2024-03-25T11:37:54;100019.06;;;16.69;46.71
5812;BME280;2932;52.400;9.558;2024-03-25T11:40:20;100007.63;;;17.33;45.56
5812;BME280;2932;52.400;9.558;2024-03-25T11:42:46;99993.19;;;18.08;45.48
5812;BME280;2932;52.400;9.558;2024-03-25T11:45:18;100003.34;;;18.39;43.85
5812;BME280;2932;52.400;9.558;2024-03-25T11:47:45;99996.09;;;19.47;43.53
5812;BME280;2932;52.400;9.558;2024-03-25T11:50:12;99994.13;;;20.48;41.52
5812;BME280;2932;52.400;9.558;2024-03-25T11:52:39;99996.78;;;19.85;41.71
5812;BME280;2932;52.400;9.558;2024-03-25T11:55:04;99999.91;;;20.14;41.55
5812;BME280;2932;52.400;9.558;2024-03-25T11:57:30;99999.38;;;20.46;41.85
5812;BME280;2932;52.400;9.558;2024-03-25T11:59:55;99989.72;;;21.30;41.27
5812;BME280;2932;52.400;9.558;2024-03-25T12:02:21;99980.91;;;20.88;39.94
5812;BME280;2932;52.400;9.558;2024-03-25T12:04:47;99991.06;;;20.82;40.86
5812;BME280;2932;52.400;9.558;2024-03-25T12:07:16;99992.16;;;20.69;40.81
5812;BME280;2932;52.400;9.558;2024-03-25T12:09:41;99991.13;;;20.59;40.38
5812;BME280;2932;52.400;9.558;2024-03-25T12:12:26;99992.41;;;20.31;40.71
5812;BME280;2932;52.400;9.558;2024-03-25T12:14:52;99999.63;;;19.82;40.82
5812;BME280;2932;52.400;9.558;2024-03-25T12:17:18;100002.44;;;19.21;41.74
5812;BME280;2932;52.400;9.558;2024-03-25T12:19:57;100005.41;;;17.80;41.89
5812;BME280;2932;52.400;9.558;2024-03-25T12:22:24;100000.53;;;17.18;42.86
5812;BME280;2932;52.400;9.558;2024-03-25T12:24:50;99998.34;;;16.34;43.33
5812;BME280;2932;52.400;9.558;2024-03-25T12:27:15;99996.69;;;16.51;44.11
5812;BME280;2932;52.400;9.558;2024-03-25T12:29:40;99997.53;;;16.09;44.26
5812;BME280;2932;52.400;9.558;2024-03-25T12:32:09;99991.97;;;16.16;44.04
5812;BME280;2932;52.400;9.558;2024-03-25T12:34:35;99976.34;;;16.69;43.60
5812;BME280;2932;52.400;9.558;2024-03-25T12:37:03;99984.78;;;15.94;44.07
5812;BME280;2932;52.400;9.558;2024-03-25T12:39:32;99971.91;;;16.85;44.36
5812;BME280;2932;52.400;9.558;2024-03-25T12:41:57;99972.69;;;17.70;41.66
5812;BME280;2932;52.400;9.558;2024-03-25T12:44:23;99974.91;;;17.30;41.43
5812;BME280;2932;52.400;9.558;2024-03-25T12:46:48;99969.06;;;16.99;42.70
5812;BME280;2932;52.400;9.558;2024-03-25T12:49:13;99976.81;;;16.17;42.67
5812;BME280;2932;52.400;9.558;2024-03-25T12:51:39;99976.81;;;16.24;43.42
5812;BME280;2932;52.400;9.558;2024-03-25T12:54:04;99971.94;;;16.75;42.82
5812;BME280;2932;52.400;9.558;2024-03-25T12:56:30;99965.19;;;16.54;43.08
5812;BME280;2932;52.400;9.558;2024-03-25T12:58:55;99958.44;;;17.46;43.64
5812;BME280;2932;52.400;9.558;2024-03-25T13:01:20;99953.16;;;18.11;42.86
5812;BME280;2932;52.400;9.558;2024-03-25T13:03:45;99954.06;;;17.42;42.51
5812;BME280;2932;52.400;9.558;2024-03-25T13:06:11;99961.09;;;16.94;43.99
5812;BME280;2932;52.400;9.558;2024-03-25T13:08:36;99965.34;;;17.20;43.94
5812;BME280;2932;52.400;9.558;2024-03-25T13:11:02;99961.91;;;16.91;43.49
5812;BME280;2932;52.400;9.558;2024-03-25T13:13:27;99958.50;;;17.32;43.24
5812;BME280;2932;52.400;9.558;2024-03-25T13:15:52;99961.44;;;17.07;43.68
5812;BME280;2932;52.400;9.558;2024-03-25T13:18:18;99958.00;;;17.51;44.12
5812;BME280;2932;52.400;9.558;2024-03-25T13:20:43;99957.41;;;17.85;43.85